X  Sluiten METAR luchtvaart weer gegevens      LGRX Patras Araxos Agamemnon Airport
Temperatuur
61°F Temperatuur
52°F Dauwpunt
72% Vochtigheid



Wind
7 MPH
11 KM/U
3 M/S
6 KTS



60°
ONO
Huidig weer

Grotendeels bewolkt Grotendeels bewolkt
Luchtdruk 1021.92 (hPa) - 30.18 (inHg)
Zicht 6.2 (mijl) - 10 (km)
Vliegveld
Vliegveld code LGRX

Locatie : Patras Araxos Agamemnon Airport
Afstand: 108 (mi)

Metar:
LGRX 041750Z 06006KT 9999 BKN050 16/11 Q1022

Tijd: 04-12-2022 19:50 EET